sensor_id;sensor_type;location;lat;lon;timestamp;temperature;humidity
32895;DHT22;19251;49.484;8.260;2024-03-02T00:03:23;9.90;20.10
32895;DHT22;19251;49.484;8.260;2024-03-02T00:08:26;9.90;20.00
32895;DHT22;19251;49.484;8.260;2024-03-02T00:13:29;9.90;19.90
32895;DHT22;19251;49.484;8.260;2024-03-02T00:23:38;9.80;19.70
32895;DHT22;19251;49.484;8.260;2024-03-02T00:28:40;9.80;19.60
32895;DHT22;19251;49.484;8.260;2024-03-02T00:33:45;9.80;19.70
32895;DHT22;19251;49.484;8.260;2024-03-02T00:38:49;9.70;19.60
32895;DHT22;19251;49.484;8.260;2024-03-02T00:43:56;9.60;19.60
32895;DHT22;19251;49.484;8.260;2024-03-02T00:48:59;9.50;19.50
32895;DHT22;19251;49.484;8.260;2024-03-02T00:54:07;9.40;19.60
32895;DHT22;19251;49.484;8.260;2024-03-02T00:59:10;9.30;19.70
32895;DHT22;19251;49.484;8.260;2024-03-02T01:04:12;9.30;19.70
32895;DHT22;19251;49.484;8.260;2024-03-02T01:09:16;9.20;19.60
32895;DHT22;19251;49.484;8.260;2024-03-02T01:14:19;9.20;19.60
32895;DHT22;19251;49.484;8.260;2024-03-02T01:19:22;9.10;19.50
32895;DHT22;19251;49.484;8.260;2024-03-02T01:24:24;9.10;19.60
32895;DHT22;19251;49.484;8.260;2024-03-02T01:29:26;9.00;19.60
32895;DHT22;19251;49.484;8.260;2024-03-02T01:34:28;8.90;19.60
32895;DHT22;19251;49.484;8.260;2024-03-02T01:39:30;8.90;19.60
32895;DHT22;19251;49.484;8.260;2024-03-02T01:44:32;8.80;19.60
32895;DHT22;19251;49.484;8.260;2024-03-02T01:49:35;8.70;19.50
32895;DHT22;19251;49.484;8.260;2024-03-02T01:54:37;8.60;19.60
32895;DHT22;19251;49.484;8.260;2024-03-02T01:59:39;8.60;19.70
32895;DHT22;19251;49.484;8.260;2024-03-02T02:04:41;8.50;19.80
32895;DHT22;19251;49.484;8.260;2024-03-02T02:09:45;8.40;19.80
32895;DHT22;19251;49.484;8.260;2024-03-02T02:14:48;8.40;19.80
32895;DHT22;19251;49.484;8.260;2024-03-02T02:19:52;8.30;19.70
32895;DHT22;19251;49.484;8.260;2024-03-02T02:24:55;8.20;19.50
32895;DHT22;19251;49.484;8.260;2024-03-02T02:29:57;8.10;19.50
32895;DHT22;19251;49.484;8.260;2024-03-02T02:34:59;8.00;19.60
32895;DHT22;19251;49.484;8.260;2024-03-02T02:40:01;7.90;19.60
32895;DHT22;19251;49.484;8.260;2024-03-02T02:45:03;7.90;19.80
32895;DHT22;19251;49.484;8.260;2024-03-02T02:55:08;7.90;20.30
32895;DHT22;19251;49.484;8.260;2024-03-02T03:00:12;7.90;20.40
32895;DHT22;19251;49.484;8.260;2024-03-02T03:05:19;7.90;20.70
32895;DHT22;19251;49.484;8.260;2024-03-02T03:10:22;8.00;20.80
32895;DHT22;19251;49.484;8.260;2024-03-02T03:15:25;7.90;20.80
32895;DHT22;19251;49.484;8.260;2024-03-02T03:20:27;8.00;20.80
32895;DHT22;19251;49.484;8.260;2024-03-02T03:25:29;8.00;20.80
32895;DHT22;19251;49.484;8.260;2024-03-02T03:30:32;8.00;20.80
32895;DHT22;19251;49.484;8.260;2024-03-02T03:35:34;8.10;21.00
32895;DHT22;19251;49.484;8.260;2024-03-02T03:40:39;8.00;21.00
32895;DHT22;19251;49.484;8.260;2024-03-02T03:45:41;8.00;21.10
32895;DHT22;19251;49.484;8.260;2024-03-02T03:50:43;8.00;21.30
32895;DHT22;19251;49.484;8.260;2024-03-02T03:55:45;8.00;21.30
32895;DHT22;19251;49.484;8.260;2024-03-02T04:00:48;8.00;21.40
32895;DHT22;19251;49.484;8.260;2024-03-02T04:05:50;8.00;21.30
32895;DHT22;19251;49.484;8.260;2024-03-02T04:10:52;8.00;21.20
32895;DHT22;19251;49.484;8.260;2024-03-02T04:15:54;8.00;21.30
32895;DHT22;19251;49.484;8.260;2024-03-02T04:20:56;7.90;21.10
32895;DHT22;19251;49.484;8.260;2024-03-02T04:25:59;7.90;21.20
32895;DHT22;19251;49.484;8.260;2024-03-02T04:31:02;7.80;21.20
32895;DHT22;19251;49.484;8.260;2024-03-02T04:36:04;7.80;21.30
32895;DHT22;19251;49.484;8.260;2024-03-02T04:41:06;7.80;21.60
32895;DHT22;19251;49.484;8.260;2024-03-02T04:46:08;7.70;21.70
32895;DHT22;19251;49.484;8.260;2024-03-02T04:51:10;7.70;21.60
32895;DHT22;19251;49.484;8.260;2024-03-02T04:56:13;7.70;21.60
32895;DHT22;19251;49.484;8.260;2024-03-02T05:01:32;7.70;21.70
32895;DHT22;19251;49.484;8.260;2024-03-02T05:06:35;7.80;22.20
32895;DHT22;19251;49.484;8.260;2024-03-02T05:11:37;7.90;22.20
32895;DHT22;19251;49.484;8.260;2024-03-02T05:16:39;8.00;22.30
32895;DHT22;19251;49.484;8.260;2024-03-02T05:21:43;8.00;22.40
32895;DHT22;19251;49.484;8.260;2024-03-02T05:26:45;8.20;22.30
32895;DHT22;19251;49.484;8.260;2024-03-02T05:31:48;8.20;22.30
32895;DHT22;19251;49.484;8.260;2024-03-02T05:36:50;8.30;22.40
32895;DHT22;19251;49.484;8.260;2024-03-02T05:41:52;8.30;22.30
32895;DHT22;19251;49.484;8.260;2024-03-02T05:46:54;8.40;22.30
32895;DHT22;19251;49.484;8.260;2024-03-02T05:51:56;8.40;22.30
32895;DHT22;19251;49.484;8.260;2024-03-02T05:56:58;8.50;22.30
32895;DHT22;19251;49.484;8.260;2024-03-02T06:02:18;8.50;22.30
32895;DHT22;19251;49.484;8.260;2024-03-02T06:07:20;8.70;22.50
32895;DHT22;19251;49.484;8.260;2024-03-02T06:12:22;8.50;22.30
32895;DHT22;19251;49.484;8.260;2024-03-02T06:17:24;8.50;22.20
32895;DHT22;19251;49.484;8.260;2024-03-02T06:22:26;8.50;22.40
32895;DHT22;19251;49.484;8.260;2024-03-02T06:27:29;8.60;22.50
32895;DHT22;19251;49.484;8.260;2024-03-02T06:32:30;8.60;22.60
32895;DHT22;19251;49.484;8.260;2024-03-02T06:37:33;8.60;22.50
32895;DHT22;19251;49.484;8.260;2024-03-02T06:42:35;8.60;22.60
32895;DHT22;19251;49.484;8.260;2024-03-02T06:47:37;8.70;22.60
32895;DHT22;19251;49.484;8.260;2024-03-02T06:52:39;8.80;22.60
32895;DHT22;19251;49.484;8.260;2024-03-02T06:57:41;8.80;22.60
32895;DHT22;19251;49.484;8.260;2024-03-02T07:02:44;8.90;22.60
32895;DHT22;19251;49.484;8.260;2024-03-02T07:07:46;9.00;22.70
32895;DHT22;19251;49.484;8.260;2024-03-02T07:12:48;9.00;22.60
32895;DHT22;19251;49.484;8.260;2024-03-02T07:17:50;9.10;22.70
32895;DHT22;19251;49.484;8.260;2024-03-02T07:22:52;9.20;22.70
32895;DHT22;19251;49.484;8.260;2024-03-02T07:32:56;9.40;22.70
32895;DHT22;19251;49.484;8.260;2024-03-02T07:37:58;9.50;22.80
32895;DHT22;19251;49.484;8.260;2024-03-02T07:43:00;9.70;22.80
32895;DHT22;19251;49.484;8.260;2024-03-02T07:48:03;9.70;22.70
32895;DHT22;19251;49.484;8.260;2024-03-02T07:53:08;9.80;22.80
32895;DHT22;19251;49.484;8.260;2024-03-02T07:58:10;10.00;22.00
32895;DHT22;19251;49.484;8.260;2024-03-02T08:03:13;10.10;21.90
32895;DHT22;19251;49.484;8.260;2024-03-02T08:13:18;10.30;21.90
32895;DHT22;19251;49.484;8.260;2024-03-02T08:18:20;10.50;22.00
32895;DHT22;19251;49.484;8.260;2024-03-02T08:23:22;10.60;21.90
32895;DHT22;19251;49.484;8.260;2024-03-02T08:28:24;10.60;21.80
32895;DHT22;19251;49.484;8.260;2024-03-02T08:33:26;10.90;21.90
32895;DHT22;19251;49.484;8.260;2024-03-02T08:38:28;11.00;21.80
32895;DHT22;19251;49.484;8.260;2024-03-02T08:43:30;11.20;21.90
32895;DHT22;19251;49.484;8.260;2024-03-02T08:48:32;11.40;21.90
32895;DHT22;19251;49.484;8.260;2024-03-02T08:58:37;11.80;21.90
32895;DHT22;19251;49.484;8.260;2024-03-02T09:03:39;12.10;21.90
32895;DHT22;19251;49.484;8.260;2024-03-02T09:08:41;12.30;21.90
32895;DHT22;19251;49.484;8.260;2024-03-02T09:13:43;12.50;21.80
32895;DHT22;19251;49.484;8.260;2024-03-02T09:23:49;13.00;21.70
32895;DHT22;19251;49.484;8.260;2024-03-02T09:28:51;13.20;21.20
32895;DHT22;19251;49.484;8.260;2024-03-02T09:33:53;13.50;20.80
32895;DHT22;19251;49.484;8.260;2024-03-02T09:38:55;13.60;20.50
32895;DHT22;19251;49.484;8.260;2024-03-02T09:43:57;13.80;20.20
32895;DHT22;19251;49.484;8.260;2024-03-02T09:49:00;13.90;20.10
32895;DHT22;19251;49.484;8.260;2024-03-02T09:54:02;14.10;19.90
32895;DHT22;19251;49.484;8.260;2024-03-02T09:59:19;14.20;19.60
32895;DHT22;19251;49.484;8.260;2024-03-02T10:04:23;14.40;19.30
32895;DHT22;19251;49.484;8.260;2024-03-02T10:09:28;14.60;18.80
32895;DHT22;19251;49.484;8.260;2024-03-02T10:14:31;14.90;18.50
32895;DHT22;19251;49.484;8.260;2024-03-02T10:19:34;15.00;18.00
32895;DHT22;19251;49.484;8.260;2024-03-02T10:24:39;15.20;17.50
32895;DHT22;19251;49.484;8.260;2024-03-02T10:29:42;15.40;17.30
32895;DHT22;19251;49.484;8.260;2024-03-02T10:34:47;15.60;17.50
32895;DHT22;19251;49.484;8.260;2024-03-02T10:39:50;15.70;16.70
32895;DHT22;19251;49.484;8.260;2024-03-02T10:44:54;16.00;16.70
32895;DHT22;19251;49.484;8.260;2024-03-02T10:49:56;16.20;16.10
32895;DHT22;19251;49.484;8.260;2024-03-02T10:54:59;16.40;15.90
32895;DHT22;19251;49.484;8.260;2024-03-02T11:00:02;16.60;15.40
32895;DHT22;19251;49.484;8.260;2024-03-02T11:05:04;16.90;15.20
32895;DHT22;19251;49.484;8.260;2024-03-02T11:10:09;16.90;14.90
32895;DHT22;19251;49.484;8.260;2024-03-02T11:15:11;17.00;14.30
32895;DHT22;19251;49.484;8.260;2024-03-02T11:20:16;17.20;14.30
32895;DHT22;19251;49.484;8.260;2024-03-02T11:25:25;17.20;14.10
32895;DHT22;19251;49.484;8.260;2024-03-02T11:35:37;17.50;13.90
32895;DHT22;19251;49.484;8.260;2024-03-02T11:40:40;17.70;13.50
32895;DHT22;19251;49.484;8.260;2024-03-02T11:45:43;17.90;13.10
32895;DHT22;19251;49.484;8.260;2024-03-02T11:50:47;18.10;12.40
32895;DHT22;19251;49.484;8.260;2024-03-02T11:55:51;18.20;11.90
32895;DHT22;19251;49.484;8.260;2024-03-02T12:00:54;18.40;11.40
32895;DHT22;19251;49.484;8.260;2024-03-02T12:05:57;18.70;11.00
32895;DHT22;19251;49.484;8.260;2024-03-02T12:11:00;18.90;10.90
32895;DHT22;19251;49.484;8.260;2024-03-02T12:16:03;19.20;10.40
32895;DHT22;19251;49.484;8.260;2024-03-02T12:21:05;19.50;9.80
32895;DHT22;19251;49.484;8.260;2024-03-02T12:26:10;19.70;8.90
32895;DHT22;19251;49.484;8.260;2024-03-02T12:31:13;19.90;8.40
32895;DHT22;19251;49.484;8.260;2024-03-02T12:36:16;20.10;8.20
32895;DHT22;19251;49.484;8.260;2024-03-02T12:41:18;20.50;8.50
32895;DHT22;19251;49.484;8.260;2024-03-02T12:46:20;20.90;7.30
32895;DHT22;19251;49.484;8.260;2024-03-02T12:51:22;21.20;7.90
32895;DHT22;19251;49.484;8.260;2024-03-02T12:56:24;21.50;6.90
32895;DHT22;19251;49.484;8.260;2024-03-02T13:01:27;21.80;6.30
32895;DHT22;19251;49.484;8.260;2024-03-02T13:06:29;22.00;5.80
32895;DHT22;19251;49.484;8.260;2024-03-02T13:11:32;22.20;5.20
32895;DHT22;19251;49.484;8.260;2024-03-02T13:16:44;22.30;4.90
32895;DHT22;19251;49.484;8.260;2024-03-02T13:21:49;22.60;4.50
32895;DHT22;19251;49.484;8.260;2024-03-02T13:26:53;22.70;4.10
32895;DHT22;19251;49.484;8.260;2024-03-02T13:31:57;23.00;4.30
32895;DHT22;19251;49.484;8.260;2024-03-02T13:36:59;23.20;3.00
32895;DHT22;19251;49.484;8.260;2024-03-02T13:42:04;23.50;3.00
32895;DHT22;19251;49.484;8.260;2024-03-02T13:52:11;24.00;2.10
32895;DHT22;19251;49.484;8.260;2024-03-02T14:02:24;24.50;1.00
32895;DHT22;19251;49.484;8.260;2024-03-02T14:07:27;24.70;1.00
32895;DHT22;19251;49.484;8.260;2024-03-02T14:12:29;24.70;1.00
32895;DHT22;19251;49.484;8.260;2024-03-02T14:17:32;24.60;1.00
32895;DHT22;19251;49.484;8.260;2024-03-02T14:22:39;24.60;1.00
32895;DHT22;19251;49.484;8.260;2024-03-02T14:27:41;24.60;1.00
32895;DHT22;19251;49.484;8.260;2024-03-02T14:33:03;24.50;1.00
32895;DHT22;19251;49.484;8.260;2024-03-02T14:38:05;24.40;1.00
32895;DHT22;19251;49.484;8.260;2024-03-02T14:43:07;24.20;1.00
32895;DHT22;19251;49.484;8.260;2024-03-02T14:48:10;24.00;1.00
32895;DHT22;19251;49.484;8.260;2024-03-02T14:53:12;24.00;1.00
32895;DHT22;19251;49.484;8.260;2024-03-02T15:03:17;23.40;1.00
32895;DHT22;19251;49.484;8.260;2024-03-02T15:08:20;23.10;1.00
32895;DHT22;19251;49.484;8.260;2024-03-02T15:13:23;22.80;1.00
32895;DHT22;19251;49.484;8.260;2024-03-02T15:18:26;22.40;1.00
32895;DHT22;19251;49.484;8.260;2024-03-02T15:23:29;22.10;1.00
32895;DHT22;19251;49.484;8.260;2024-03-02T15:28:31;21.90;1.00
32895;DHT22;19251;49.484;8.260;2024-03-02T15:33:34;21.50;1.00
32895;DHT22;19251;49.484;8.260;2024-03-02T15:38:36;21.20;1.00
32895;DHT22;19251;49.484;8.260;2024-03-02T15:43:43;20.90;1.00
32895;DHT22;19251;49.484;8.260;2024-03-02T15:48:45;20.70;1.00
32895;DHT22;19251;49.484;8.260;2024-03-02T15:53:47;20.50;1.00
32895;DHT22;19251;49.484;8.260;2024-03-02T15:58:49;20.30;1.00
32895;DHT22;19251;49.484;8.260;2024-03-02T16:03:52;20.30;1.30
32895;DHT22;19251;49.484;8.260;2024-03-02T16:08:56;19.90;1.40
32895;DHT22;19251;49.484;8.260;2024-03-02T16:14:01;19.70;1.60
32895;DHT22;19251;49.484;8.260;2024-03-02T16:19:03;19.50;1.80
32895;DHT22;19251;49.484;8.260;2024-03-02T16:24:17;19.30;2.10
32895;DHT22;19251;49.484;8.260;2024-03-02T16:29:19;19.10;2.40
32895;DHT22;19251;49.484;8.260;2024-03-02T16:34:21;18.90;2.60
32895;DHT22;19251;49.484;8.260;2024-03-02T16:39:23;18.80;2.80
32895;DHT22;19251;49.484;8.260;2024-03-02T16:44:26;18.60;3.10
32895;DHT22;19251;49.484;8.260;2024-03-02T16:49:28;18.30;3.30
32895;DHT22;19251;49.484;8.260;2024-03-02T16:54:30;18.20;3.70
32895;DHT22;19251;49.484;8.260;2024-03-02T16:59:32;17.90;4.00
32895;DHT22;19251;49.484;8.260;2024-03-02T17:04:34;17.70;4.20
32895;DHT22;19251;49.484;8.260;2024-03-02T17:09:36;17.50;4.60
32895;DHT22;19251;49.484;8.260;2024-03-02T17:14:39;17.30;4.90
32895;DHT22;19251;49.484;8.260;2024-03-02T17:19:41;17.20;5.10
32895;DHT22;19251;49.484;8.260;2024-03-02T17:24:43;16.90;5.40
32895;DHT22;19251;49.484;8.260;2024-03-02T17:29:45;17.10;5.90
32895;DHT22;19251;49.484;8.260;2024-03-02T17:34:47;16.80;5.70
32895;DHT22;19251;49.484;8.260;2024-03-02T17:39:49;16.60;6.10
32895;DHT22;19251;49.484;8.260;2024-03-02T17:44:51;16.50;6.30
32895;DHT22;19251;49.484;8.260;2024-03-02T17:49:53;16.40;6.60
32895;DHT22;19251;49.484;8.260;2024-03-02T17:59:58;16.20;6.90
32895;DHT22;19251;49.484;8.260;2024-03-02T18:05:00;16.10;7.20
32895;DHT22;19251;49.484;8.260;2024-03-02T18:10:02;16.00;7.50
32895;DHT22;19251;49.484;8.260;2024-03-02T18:15:05;15.90;7.70
32895;DHT22;19251;49.484;8.260;2024-03-02T18:20:08;15.80;8.00
32895;DHT22;19251;49.484;8.260;2024-03-02T18:25:10;15.70;8.20
32895;DHT22;19251;49.484;8.260;2024-03-02T18:30:12;15.60;8.20
32895;DHT22;19251;49.484;8.260;2024-03-02T18:35:14;15.50;8.40
32895;DHT22;19251;49.484;8.260;2024-03-02T18:40:16;15.50;8.60
32895;DHT22;19251;49.484;8.260;2024-03-02T18:45:18;15.30;8.70
32895;DHT22;19251;49.484;8.260;2024-03-02T18:50:20;15.20;8.80
32895;DHT22;19251;49.484;8.260;2024-03-02T18:55:23;15.20;9.00
32895;DHT22;19251;49.484;8.260;2024-03-02T19:00:25;15.00;9.20
32895;DHT22;19251;49.484;8.260;2024-03-02T19:05:27;14.80;9.30
32895;DHT22;19251;49.484;8.260;2024-03-02T19:10:30;14.70;9.30
32895;DHT22;19251;49.484;8.260;2024-03-02T19:15:32;14.60;9.50
32895;DHT22;19251;49.484;8.260;2024-03-02T19:20:34;14.50;9.60
32895;DHT22;19251;49.484;8.260;2024-03-02T19:25:36;14.40;9.60
32895;DHT22;19251;49.484;8.260;2024-03-02T19:30:38;14.30;9.80
32895;DHT22;19251;49.484;8.260;2024-03-02T19:35:41;14.10;9.90
32895;DHT22;19251;49.484;8.260;2024-03-02T19:40:43;14.00;10.00
32895;DHT22;19251;49.484;8.260;2024-03-02T19:45:46;14.00;10.30
32895;DHT22;19251;49.484;8.260;2024-03-02T19:50:48;13.80;10.40
32895;DHT22;19251;49.484;8.260;2024-03-02T19:55:50;13.60;10.50
32895;DHT22;19251;49.484;8.260;2024-03-02T20:00:52;13.50;10.70
32895;DHT22;19251;49.484;8.260;2024-03-02T20:05:54;13.40;11.10
32895;DHT22;19251;49.484;8.260;2024-03-02T20:10:57;13.50;11.70
32895;DHT22;19251;49.484;8.260;2024-03-02T20:15:59;13.50;12.00
32895;DHT22;19251;49.484;8.260;2024-03-02T20:21:01;13.60;12.30
32895;DHT22;19251;49.484;8.260;2024-03-02T20:26:03;13.70;12.50
32895;DHT22;19251;49.484;8.260;2024-03-02T20:31:07;13.90;12.70
32895;DHT22;19251;49.484;8.260;2024-03-02T20:41:15;13.90;12.60
32895;DHT22;19251;49.484;8.260;2024-03-02T20:46:18;14.30;13.10
32895;DHT22;19251;49.484;8.260;2024-03-02T20:51:20;14.30;12.90
32895;DHT22;19251;49.484;8.260;2024-03-02T20:56:22;14.60;12.90
32895;DHT22;19251;49.484;8.260;2024-03-02T21:01:24;14.50;12.80
32895;DHT22;19251;49.484;8.260;2024-03-02T21:06:26;14.50;12.80
32895;DHT22;19251;49.484;8.260;2024-03-02T21:11:28;14.60;12.80
32895;DHT22;19251;49.484;8.260;2024-03-02T21:16:30;14.50;12.80
32895;DHT22;19251;49.484;8.260;2024-03-02T21:21:32;14.60;12.80
32895;DHT22;19251;49.484;8.260;2024-03-02T21:26:41;14.60;12.80
32895;DHT22;19251;49.484;8.260;2024-03-02T21:31:44;14.50;12.80
32895;DHT22;19251;49.484;8.260;2024-03-02T21:36:46;14.50;12.80
32895;DHT22;19251;49.484;8.260;2024-03-02T21:41:48;14.50;12.90
32895;DHT22;19251;49.484;8.260;2024-03-02T21:46:50;14.40;12.90
32895;DHT22;19251;49.484;8.260;2024-03-02T21:51:52;14.30;12.90
32895;DHT22;19251;49.484;8.260;2024-03-02T21:56:55;14.40;13.10
32895;DHT22;19251;49.484;8.260;2024-03-02T22:01:57;14.10;13.00
32895;DHT22;19251;49.484;8.260;2024-03-02T22:06:59;13.90;13.00
32895;DHT22;19251;49.484;8.260;2024-03-02T22:12:02;13.90;13.10
32895;DHT22;19251;49.484;8.260;2024-03-02T22:17:04;13.80;13.20
32895;DHT22;19251;49.484;8.260;2024-03-02T22:22:06;13.60;13.20
32895;DHT22;19251;49.484;8.260;2024-03-02T22:27:08;13.50;13.30
32895;DHT22;19251;49.484;8.260;2024-03-02T22:32:10;13.40;13.30
32895;DHT22;19251;49.484;8.260;2024-03-02T22:37:12;13.40;13.60
32895;DHT22;19251;49.484;8.260;2024-03-02T22:42:15;13.30;13.70
32895;DHT22;19251;49.484;8.260;2024-03-02T22:47:17;13.20;13.60
32895;DHT22;19251;49.484;8.260;2024-03-02T22:52:20;13.10;13.60
32895;DHT22;19251;49.484;8.260;2024-03-02T22:57:22;13.00;13.60
32895;DHT22;19251;49.484;8.260;2024-03-02T23:02:24;12.90;13.60
32895;DHT22;19251;49.484;8.260;2024-03-02T23:07:26;12.80;13.80
32895;DHT22;19251;49.484;8.260;2024-03-02T23:12:28;12.70;13.80
32895;DHT22;19251;49.484;8.260;2024-03-02T23:17:30;12.60;13.90
32895;DHT22;19251;49.484;8.260;2024-03-02T23:22:32;12.40;14.20
32895;DHT22;19251;49.484;8.260;2024-03-02T23:27:34;12.40;14.40
32895;DHT22;19251;49.484;8.260;2024-03-02T23:32:36;12.30;14.60
32895;DHT22;19251;49.484;8.260;2024-03-02T23:37:38;12.10;14.70
32895;DHT22;19251;49.484;8.260;2024-03-02T23:42:40;12.30;15.00
32895;DHT22;19251;49.484;8.260;2024-03-02T23:47:42;12.20;14.90
32895;DHT22;19251;49.484;8.260;2024-03-02T23:52:44;12.00;14.70
32895;DHT22;19251;49.484;8.260;2024-03-02T23:57:46;11.90;14.60
